createdAt,value
2022-12-25T00:02:22.579Z,46.42
2022-12-25T00:04:49.757Z,47.42
2022-12-25T00:07:16.928Z,46.83
2022-12-25T00:09:44.093Z,46.38
2022-12-25T00:12:11.207Z,46.13
2022-12-25T00:14:38.335Z,47.20
2022-12-25T00:17:05.529Z,45.30
2022-12-25T00:19:32.682Z,42.35
2022-12-25T00:21:59.847Z,44.38
2022-12-25T00:24:26.988Z,45.65
2022-12-25T00:26:54.151Z,44.10
2022-12-25T00:29:21.389Z,43.90
2022-12-25T00:31:48.674Z,42.95
2022-12-25T00:34:15.901Z,41.33
2022-12-25T00:36:43.185Z,38.95
2022-12-25T00:39:10.452Z,40.53
2022-12-25T00:41:56.471Z,41.88
2022-12-25T00:44:26.335Z,42.80
2022-12-25T00:46:53.822Z,41.40
2022-12-25T00:49:23.763Z,40.47
2022-12-25T00:51:51.396Z,42.22
2022-12-25T00:54:18.705Z,40.15
2022-12-25T00:56:46.022Z,38.63
2022-12-25T00:59:13.584Z,41.65
2022-12-25T01:01:41.198Z,40.42
2022-12-25T01:04:09.439Z,41.20
2022-12-25T01:06:36.589Z,38.83
2022-12-25T01:09:22.821Z,39.50
2022-12-25T01:14:17.001Z,38.55
2022-12-25T01:16:44.523Z,39.47
2022-12-25T01:19:11.897Z,38.00
2022-12-25T01:21:39.242Z,39.10
2022-12-25T01:24:06.892Z,38.60
2022-12-25T01:26:34.024Z,37.03
2022-12-25T01:29:02.512Z,35.85
2022-12-25T01:31:29.672Z,36.15
2022-12-25T01:33:56.876Z,35.45
2022-12-25T01:36:26.179Z,34.60
2022-12-25T01:38:54.244Z,34.55
2022-12-25T01:41:22.588Z,33.65
2022-12-25T01:44:00.355Z,36.05
2022-12-25T01:46:27.673Z,34.47
2022-12-25T01:48:55.240Z,32.67
2022-12-25T01:51:25.082Z,32.00
2022-12-25T01:53:52.264Z,33.45
2022-12-25T01:56:19.629Z,32.05
2022-12-25T01:58:47.088Z,32.47
2022-12-25T02:01:14.443Z,31.45
2022-12-25T02:03:42.498Z,32.45
2022-12-25T02:06:09.652Z,32.75
2022-12-25T02:08:36.995Z,31.27
2022-12-25T02:11:04.250Z,30.08
2022-12-25T02:13:31.666Z,31.25
2022-12-25T02:16:07.994Z,30.38
2022-12-25T02:18:35.334Z,29.60
2022-12-25T02:21:17.875Z,29.30
2022-12-25T02:23:57.086Z,28.48
2022-12-25T02:26:24.444Z,28.83
2022-12-25T02:28:57.511Z,28.55
2022-12-25T02:31:38.816Z,28.80
2022-12-25T02:34:09.485Z,27.52
2022-12-25T02:36:43.218Z,27.52
2022-12-25T02:39:48.635Z,27.60
2022-12-25T02:42:22.035Z,26.13
2022-12-25T02:45:09.567Z,28.10
2022-12-25T02:47:56.613Z,25.60
2022-12-25T02:50:43.825Z,26.55
2022-12-25T02:53:30.728Z,26.65
2022-12-25T02:56:17.016Z,25.08
2022-12-25T03:01:51.368Z,25.55
2022-12-25T03:04:39.637Z,25.40
2022-12-25T03:07:08.858Z,24.05
2022-12-25T03:10:00.079Z,24.15
2022-12-25T03:12:30.088Z,23.83
2022-12-25T03:15:15.959Z,23.23
2022-12-25T03:17:43.161Z,23.63
2022-12-25T03:20:29.286Z,24.38
2022-12-25T03:23:15.656Z,22.42
2022-12-25T03:28:28.547Z,21.98
2022-12-25T03:31:13.848Z,22.55
2022-12-25T03:34:08.611Z,22.40
2022-12-25T03:36:56.961Z,22.17
2022-12-25T03:39:53.392Z,21.20
2022-12-25T03:43:01.828Z,22.55
2022-12-25T03:45:52.517Z,20.75
2022-12-25T03:48:38.961Z,21.90
2022-12-25T03:51:27.448Z,22.42
2022-12-25T03:54:15.988Z,20.73
2022-12-25T03:57:03.074Z,21.02
2022-12-25T03:59:48.882Z,20.35
2022-12-25T04:02:34.913Z,20.20
2022-12-25T04:05:21.231Z,19.80
2022-12-25T04:10:52.723Z,18.73
2022-12-25T04:13:38.398Z,19.23
2022-12-25T04:16:24.411Z,19.40
2022-12-25T04:19:10.251Z,18.13
2022-12-25T04:21:56.266Z,19.10
2022-12-25T04:24:42.257Z,18.77
2022-12-25T04:27:28.303Z,17.83
2022-12-25T04:30:14.309Z,18.88
2022-12-25T04:33:00.406Z,17.65
2022-12-25T04:35:46.043Z,18.50
2022-12-25T04:38:13.280Z,17.80
2022-12-25T04:40:40.421Z,17.33
2022-12-25T04:43:07.582Z,17.65
2022-12-25T04:45:34.817Z,17.08
2022-12-25T04:48:02.099Z,18.05
2022-12-25T04:50:29.286Z,17.73
2022-12-25T04:52:56.543Z,16.48
2022-12-25T04:55:23.661Z,16.92
2022-12-25T04:57:50.843Z,17.13
2022-12-25T05:00:18.221Z,17.42
2022-12-25T05:02:45.481Z,16.83
2022-12-25T05:05:12.760Z,16.13
2022-12-25T05:07:39.887Z,14.65
2022-12-25T05:10:07.337Z,16.10
2022-12-25T05:12:34.513Z,15.55
2022-12-25T05:15:01.650Z,15.18
2022-12-25T05:17:28.805Z,16.38
2022-12-25T05:19:56.167Z,16.50
2022-12-25T05:22:23.348Z,15.43
2022-12-25T05:24:50.527Z,15.15
2022-12-25T05:27:17.791Z,15.35
2022-12-25T05:29:44.958Z,14.98
2022-12-25T05:32:12.677Z,14.05
2022-12-25T05:34:39.978Z,14.27
2022-12-25T05:37:07.225Z,14.10
2022-12-25T05:39:34.487Z,14.45
2022-12-25T05:42:01.667Z,14.82
2022-12-25T05:44:28.802Z,13.85
2022-12-25T05:46:55.994Z,14.63
2022-12-25T05:49:23.251Z,14.23
2022-12-25T05:51:50.420Z,13.55
2022-12-25T05:54:17.532Z,13.85
2022-12-25T05:56:44.676Z,14.32
2022-12-25T05:59:11.837Z,13.35
2022-12-25T06:01:39.175Z,13.65
2022-12-25T06:04:12.248Z,14.20
2022-12-25T06:06:40.018Z,13.43
2022-12-25T06:09:07.161Z,13.05
2022-12-25T06:11:34.274Z,13.63
2022-12-25T06:14:01.433Z,12.93
2022-12-25T06:16:34.017Z,14.32
2022-12-25T06:19:04.654Z,13.40
2022-12-25T06:21:31.801Z,12.88
2022-12-25T06:24:00.563Z,13.43
2022-12-25T06:26:27.891Z,13.82
2022-12-25T06:28:55.125Z,12.80
2022-12-25T06:31:23.701Z,12.82
2022-12-25T06:33:50.938Z,12.82
2022-12-25T06:36:19.807Z,11.73
2022-12-25T06:38:47.082Z,11.57
2022-12-25T06:41:16.077Z,11.75
2022-12-25T06:43:43.217Z,11.77
2022-12-25T06:46:12.174Z,11.68
2022-12-25T06:48:40.424Z,11.40
2022-12-25T06:51:07.798Z,10.65
2022-12-25T06:53:40.350Z,11.65
2022-12-25T06:56:10.227Z,12.55
2022-12-25T06:58:37.331Z,11.23
2022-12-25T07:01:15.577Z,12.07
2022-12-25T07:03:44.730Z,11.00
2022-12-25T07:06:12.112Z,11.50
2022-12-25T07:08:39.697Z,12.05
2022-12-25T07:11:07.373Z,12.35
2022-12-25T07:13:34.496Z,11.95
2022-12-25T07:16:03.262Z,10.80
2022-12-25T07:18:31.004Z,11.75
2022-12-25T07:21:00.255Z,11.45
2022-12-25T07:23:27.577Z,11.38
2022-12-25T07:25:59.172Z,11.77
2022-12-25T07:28:26.834Z,11.50
2022-12-25T07:30:54.169Z,11.05
2022-12-25T07:33:21.371Z,11.32
2022-12-25T07:35:48.601Z,10.82
2022-12-25T07:38:15.766Z,11.75
2022-12-25T07:40:46.235Z,10.40
2022-12-25T07:43:13.619Z,10.48
2022-12-25T07:45:40.861Z,10.68
2022-12-25T07:48:13.388Z,10.45
2022-12-25T07:50:43.609Z,10.25
2022-12-25T07:53:10.765Z,10.40
2022-12-25T07:55:37.929Z,10.23
2022-12-25T07:58:07.184Z,10.13
2022-12-25T08:00:34.554Z,11.45
2022-12-25T08:03:01.976Z,11.02
2022-12-25T08:05:29.267Z,10.75
2022-12-25T08:07:58.097Z,12.25
2022-12-25T08:10:25.613Z,11.52
2022-12-25T08:12:56.015Z,11.57
2022-12-25T08:15:23.171Z,10.73
2022-12-25T08:17:50.280Z,13.02
2022-12-25T08:20:17.435Z,21.65
2022-12-25T08:22:44.598Z,26.40
2022-12-25T08:25:11.776Z,27.50
2022-12-25T08:27:38.977Z,25.58
2022-12-25T08:30:06.496Z,25.95
2022-12-25T08:32:34.520Z,27.08
2022-12-25T08:35:01.838Z,24.70
2022-12-25T08:37:30.528Z,25.52
2022-12-25T08:39:57.759Z,24.98
2022-12-25T08:42:25.173Z,22.42
2022-12-25T08:44:52.335Z,23.73
2022-12-25T08:47:19.504Z,21.15
2022-12-25T08:49:46.713Z,22.55
2022-12-25T08:52:14.084Z,21.67
2022-12-25T08:54:41.202Z,22.83
2022-12-25T08:57:08.506Z,21.80
2022-12-25T08:59:35.631Z,22.20
2022-12-25T09:02:02.895Z,22.85
2022-12-25T09:04:30.120Z,20.90
2022-12-25T09:06:57.322Z,22.20
2022-12-25T09:09:30.333Z,21.60
2022-12-25T09:11:57.441Z,21.73
2022-12-25T09:14:24.632Z,21.17
2022-12-25T09:16:51.810Z,21.10
2022-12-25T09:19:19.072Z,21.50
2022-12-25T09:21:46.256Z,21.05
2022-12-25T09:24:13.440Z,20.75
2022-12-25T09:26:40.737Z,21.25
2022-12-25T09:29:07.847Z,22.33
2022-12-25T09:31:35.039Z,23.77
2022-12-25T09:34:02.196Z,23.90
2022-12-25T09:36:29.386Z,22.38
2022-12-25T09:38:56.706Z,21.33
2022-12-25T09:41:29.581Z,21.25
2022-12-25T09:44:03.585Z,22.63
2022-12-25T09:46:37.317Z,21.52
2022-12-25T09:49:17.038Z,20.80
2022-12-25T09:51:44.854Z,22.13
2022-12-25T09:54:17.993Z,20.45
2022-12-25T09:56:45.222Z,20.80
2022-12-25T09:59:25.695Z,21.25
2022-12-25T10:01:52.876Z,20.70
2022-12-25T10:04:23.154Z,21.20
2022-12-25T10:06:53.069Z,19.15
2022-12-25T10:09:34.705Z,20.00
2022-12-25T10:12:16.472Z,19.90
2022-12-25T10:15:02.483Z,19.80
2022-12-25T10:17:45.674Z,19.92
2022-12-25T10:20:34.515Z,20.98
2022-12-25T10:23:02.754Z,19.65
2022-12-25T10:25:31.109Z,22.05
2022-12-25T10:28:00.480Z,21.70
2022-12-25T10:30:29.063Z,22.02
2022-12-25T10:32:57.268Z,20.80
2022-12-25T10:35:25.646Z,20.83
2022-12-25T10:38:03.463Z,21.77
2022-12-25T10:40:35.412Z,20.13
2022-12-25T10:43:08.395Z,20.42
2022-12-25T10:45:46.247Z,20.63
2022-12-25T10:48:24.633Z,20.35
2022-12-25T10:50:51.878Z,21.25
2022-12-25T10:53:22.457Z,21.45
2022-12-25T10:55:59.706Z,23.02
2022-12-25T10:58:27.219Z,21.05
2022-12-25T11:01:04.801Z,21.88
2022-12-25T11:03:33.805Z,22.90
2022-12-25T11:06:02.731Z,21.05
2022-12-25T11:08:31.373Z,22.92
2022-12-25T11:10:58.521Z,23.60
2022-12-25T11:13:27.679Z,21.65
2022-12-25T11:16:13.904Z,22.33
2022-12-25T11:21:19.672Z,24.40
2022-12-25T11:23:48.564Z,23.73
2022-12-25T11:26:16.531Z,22.00
2022-12-25T11:28:45.379Z,24.02
2022-12-25T11:31:19.944Z,24.25
2022-12-25T11:33:47.143Z,25.42
2022-12-25T11:36:33.094Z,26.35
2022-12-25T11:39:02.236Z,26.70
2022-12-25T11:41:34.776Z,26.23
2022-12-25T11:44:05.131Z,26.73
2022-12-25T11:46:39.642Z,26.27
2022-12-25T11:49:08.400Z,24.92
2022-12-25T11:51:37.647Z,25.10
2022-12-25T11:54:15.437Z,26.50
2022-12-25T11:56:43.187Z,26.27
2022-12-25T11:59:26.269Z,25.77
2022-12-25T12:01:55.863Z,25.75
2022-12-25T12:04:31.032Z,25.77
2022-12-25T12:07:09.706Z,26.83
2022-12-25T12:09:57.580Z,26.13
2022-12-25T12:12:24.713Z,26.42
2022-12-25T12:14:58.116Z,28.58
2022-12-25T12:17:25.313Z,26.98
2022-12-25T12:19:52.790Z,26.75
2022-12-25T12:22:28.400Z,26.88
2022-12-25T12:25:15.767Z,26.13
2022-12-25T12:27:43.070Z,26.52
2022-12-25T12:30:24.379Z,27.70
2022-12-25T12:32:53.789Z,27.25
2022-12-25T12:35:26.537Z,26.63
2022-12-25T12:37:58.025Z,28.20
2022-12-25T12:40:36.503Z,29.30
2022-12-25T12:43:04.090Z,30.60
2022-12-25T12:45:35.440Z,30.52
2022-12-25T12:48:02.803Z,30.83
2022-12-25T12:50:35.811Z,33.40
2022-12-25T12:53:23.585Z,32.15
2022-12-25T12:55:51.497Z,33.63
2022-12-25T12:58:46.211Z,31.92
2022-12-25T13:01:28.866Z,62.72
2022-12-25T13:04:02.166Z,57.28
2022-12-25T13:06:34.815Z,56.83
2022-12-25T13:09:01.971Z,58.05
2022-12-25T13:11:30.463Z,53.17
2022-12-25T13:13:58.576Z,53.45
2022-12-25T13:16:33.900Z,52.75
2022-12-25T13:19:05.262Z,50.55
2022-12-25T13:21:33.363Z,48.67
2022-12-25T13:24:07.272Z,62.08
2022-12-25T13:26:34.500Z,60.22
2022-12-25T13:29:04.981Z,57.20
2022-12-25T13:31:35.150Z,56.47
2022-12-25T13:34:02.336Z,55.78
2022-12-25T13:36:30.629Z,54.60
2022-12-25T13:38:59.471Z,53.15
2022-12-25T13:41:56.371Z,52.28
2022-12-25T13:44:25.125Z,51.97
2022-12-25T13:46:52.854Z,50.78
2022-12-25T13:49:21.827Z,51.60
2022-12-25T13:51:49.936Z,50.38
2022-12-25T13:54:18.667Z,48.25
2022-12-25T13:56:51.059Z,49.53
2022-12-25T13:59:20.578Z,49.38
2022-12-25T14:01:48.580Z,46.10
2022-12-25T14:04:20.458Z,47.60
2022-12-25T14:06:48.112Z,47.35
2022-12-25T14:09:15.296Z,46.92
2022-12-25T14:11:45.745Z,44.80
2022-12-25T14:14:23.998Z,46.47
2022-12-25T14:16:53.447Z,43.92
2022-12-25T14:19:26.334Z,46.45
2022-12-25T14:21:55.949Z,45.15
2022-12-25T14:24:25.531Z,44.42
2022-12-25T14:27:03.537Z,43.30
2022-12-25T14:29:34.287Z,42.67
2022-12-25T14:32:04.277Z,43.92
2022-12-25T14:34:32.004Z,43.95
2022-12-25T14:36:59.565Z,41.28
2022-12-25T14:39:39.444Z,40.80
2022-12-25T14:42:20.826Z,40.42
2022-12-25T14:45:07.808Z,40.08
2022-12-25T14:47:40.930Z,37.80
2022-12-25T14:50:16.003Z,36.72
2022-12-25T14:52:44.108Z,38.58
2022-12-25T14:55:25.138Z,39.30
2022-12-25T14:57:55.528Z,37.25
2022-12-25T15:00:31.784Z,37.85
2022-12-25T15:03:00.238Z,37.35
2022-12-25T15:05:32.096Z,38.88
2022-12-25T15:08:03.523Z,38.78
2022-12-25T15:13:18.779Z,35.55
2022-12-25T15:15:58.016Z,36.55
2022-12-25T15:18:26.892Z,34.60
2022-12-25T15:20:55.370Z,36.90
2022-12-25T15:23:22.788Z,35.60
2022-12-25T15:25:51.017Z,34.53
2022-12-25T15:28:18.252Z,32.97
2022-12-25T15:30:45.650Z,33.42
2022-12-25T15:33:16.754Z,35.70
2022-12-25T15:35:44.469Z,32.38
2022-12-25T15:38:12.963Z,32.55
2022-12-25T15:40:40.654Z,33.72
2022-12-25T15:43:14.414Z,34.30
2022-12-25T15:45:49.802Z,31.52
2022-12-25T15:48:17.033Z,32.80
2022-12-25T15:50:44.324Z,31.08
2022-12-25T15:53:11.686Z,32.83
2022-12-25T15:55:39.368Z,32.47
2022-12-25T15:58:06.696Z,32.80
2022-12-25T16:00:33.870Z,34.25
2022-12-25T16:03:01.232Z,32.42
2022-12-25T16:05:28.582Z,33.28
2022-12-25T16:07:55.733Z,31.42
2022-12-25T16:10:22.920Z,31.15
2022-12-25T16:12:50.145Z,31.92
2022-12-25T16:15:17.657Z,31.55
2022-12-25T16:17:44.853Z,33.65
2022-12-25T16:20:12.217Z,31.02
2022-12-25T16:22:42.592Z,33.03
2022-12-25T16:25:17.763Z,29.48
2022-12-25T16:27:45.322Z,31.75
2022-12-25T16:30:14.906Z,31.02
2022-12-25T16:32:42.597Z,30.55
2022-12-25T16:35:10.634Z,31.33
2022-12-25T16:37:37.879Z,31.80
2022-12-25T16:40:05.301Z,30.27
2022-12-25T16:42:32.476Z,30.30
2022-12-25T16:44:59.659Z,30.67
2022-12-25T16:47:26.824Z,29.02
2022-12-25T16:49:54.057Z,30.15
2022-12-25T16:52:21.200Z,30.55
2022-12-25T16:54:48.380Z,29.67
2022-12-25T16:57:15.666Z,29.50
2022-12-25T16:59:43.405Z,30.13
2022-12-25T17:02:16.002Z,28.15
2022-12-25T17:04:43.752Z,29.25
2022-12-25T17:07:11.140Z,29.80
2022-12-25T17:09:43.910Z,28.85
2022-12-25T17:12:11.613Z,28.45
2022-12-25T17:14:38.904Z,28.15
2022-12-25T17:17:06.050Z,26.63
2022-12-25T17:19:33.288Z,28.60
2022-12-25T17:22:00.506Z,28.55
2022-12-25T17:24:27.847Z,27.85
2022-12-25T17:26:55.347Z,27.15
2022-12-25T17:29:23.100Z,27.20
2022-12-25T17:31:50.570Z,26.92
2022-12-25T17:34:17.833Z,27.63
2022-12-25T17:36:45.061Z,28.30
2022-12-25T17:39:12.527Z,28.25
2022-12-25T17:41:39.726Z,30.00
2022-12-25T17:44:06.911Z,27.95
2022-12-25T17:46:34.105Z,28.42
2022-12-25T17:49:01.924Z,26.23
2022-12-25T17:51:30.133Z,27.35
2022-12-25T17:53:58.906Z,27.38
2022-12-25T17:56:26.363Z,26.65
2022-12-25T17:58:54.429Z,26.55
2022-12-25T18:01:22.397Z,26.80
2022-12-25T18:03:50.103Z,26.08
2022-12-25T18:06:18.529Z,27.05
2022-12-25T18:08:46.424Z,26.00
2022-12-25T18:11:17.792Z,25.88
2022-12-25T18:13:48.271Z,26.33
2022-12-25T18:16:16.190Z,26.50
2022-12-25T18:18:51.156Z,26.00
2022-12-25T18:21:19.411Z,25.70
2022-12-25T18:23:46.650Z,24.67
2022-12-25T18:26:13.875Z,24.23
2022-12-25T18:28:42.527Z,25.27
2022-12-25T18:31:17.451Z,24.60
2022-12-25T18:33:44.969Z,25.70
2022-12-25T18:36:16.077Z,23.73
2022-12-25T18:38:43.344Z,22.52
2022-12-25T18:41:11.071Z,23.55
2022-12-25T18:43:52.427Z,23.65
2022-12-25T18:46:23.934Z,24.17
2022-12-25T18:48:51.620Z,23.65
2022-12-25T18:51:18.984Z,23.80
2022-12-25T18:53:46.250Z,24.15
2022-12-25T18:56:15.279Z,23.25
2022-12-25T18:58:42.583Z,23.52
2022-12-25T19:01:18.889Z,23.20
2022-12-25T19:03:48.897Z,22.27
2022-12-25T19:06:18.905Z,21.88
2022-12-25T19:08:46.614Z,22.20
2022-12-25T19:11:14.219Z,23.52
2022-12-25T19:13:42.248Z,20.30
2022-12-25T19:16:09.457Z,21.95
2022-12-25T19:18:36.664Z,22.25
2022-12-25T19:21:04.634Z,19.92
2022-12-25T19:23:31.846Z,22.30
2022-12-25T19:25:59.089Z,21.30
2022-12-25T19:28:26.322Z,20.38
2022-12-25T19:30:54.178Z,22.17
2022-12-25T19:33:22.604Z,21.30
2022-12-25T19:35:49.760Z,20.83
2022-12-25T19:38:17.011Z,21.92
2022-12-25T19:41:00.204Z,19.63
2022-12-25T19:43:31.748Z,19.83
2022-12-25T19:45:58.938Z,20.05
2022-12-25T19:48:26.499Z,20.40
2022-12-25T19:50:53.731Z,20.48
2022-12-25T19:53:23.664Z,19.17
2022-12-25T19:55:52.596Z,19.92
2022-12-25T19:58:20.780Z,19.50
2022-12-25T20:00:58.067Z,19.42
2022-12-25T20:03:25.398Z,18.15
2022-12-25T20:05:52.735Z,19.92
2022-12-25T20:08:20.027Z,17.10
2022-12-25T20:10:47.417Z,18.42
2022-12-25T20:13:14.559Z,18.92
2022-12-25T20:15:41.840Z,18.05
2022-12-25T20:18:09.026Z,18.33
2022-12-25T20:20:36.201Z,19.17
2022-12-25T20:23:03.428Z,18.98
2022-12-25T20:25:30.570Z,18.50
2022-12-25T20:27:57.747Z,18.48
2022-12-25T20:30:24.992Z,18.15
2022-12-25T20:32:52.115Z,19.77
2022-12-25T20:35:19.314Z,17.88
2022-12-25T20:37:46.532Z,16.27
2022-12-25T20:40:13.834Z,19.38
2022-12-25T20:42:41.137Z,18.70
2022-12-25T20:45:08.799Z,17.45
2022-12-25T20:47:36.175Z,17.45
2022-12-25T20:50:03.503Z,17.48
2022-12-25T20:52:30.736Z,18.38
2022-12-25T20:54:57.839Z,16.00
2022-12-25T20:57:25.957Z,17.35
2022-12-25T20:59:54.479Z,18.00
2022-12-25T21:02:35.001Z,16.70
2022-12-25T21:05:04.192Z,16.73
2022-12-25T21:07:31.385Z,16.10
2022-12-25T21:09:59.353Z,15.63
2022-12-25T21:12:27.058Z,14.63
2022-12-25T21:14:54.196Z,16.70
2022-12-25T21:17:21.460Z,16.88
2022-12-25T21:19:48.678Z,15.30
2022-12-25T21:22:15.806Z,16.35
2022-12-25T21:24:42.977Z,16.08
2022-12-25T21:27:10.133Z,16.50
2022-12-25T21:29:37.380Z,16.15
2022-12-25T21:32:23.172Z,16.90
2022-12-25T21:34:50.474Z,16.83
2022-12-25T21:37:17.933Z,16.50
2022-12-25T21:39:45.205Z,15.65
2022-12-25T21:42:12.321Z,16.17
2022-12-25T21:44:39.527Z,15.88
2022-12-25T21:47:07.917Z,16.05
2022-12-25T21:49:54.085Z,15.95
2022-12-25T21:52:21.357Z,15.60
2022-12-25T21:54:48.532Z,16.20
2022-12-25T21:57:15.739Z,16.15
2022-12-25T21:59:42.910Z,15.18
2022-12-25T22:02:13.914Z,16.15
2022-12-25T22:04:41.274Z,15.40
2022-12-25T22:07:19.803Z,14.82
2022-12-25T22:09:47.801Z,14.63
2022-12-25T22:12:34.811Z,15.70
2022-12-25T22:15:03.089Z,16.13
2022-12-25T22:17:50.452Z,16.08
2022-12-25T22:20:19.156Z,15.60
2022-12-25T22:22:46.367Z,17.98
2022-12-25T22:25:14.404Z,17.20
2022-12-25T22:27:42.417Z,17.27
2022-12-25T22:30:14.433Z,17.95
2022-12-25T22:32:42.007Z,18.90
2022-12-25T22:35:09.387Z,18.48
2022-12-25T22:37:36.872Z,18.33
2022-12-25T22:40:05.551Z,19.30
2022-12-25T22:42:32.696Z,21.27
2022-12-25T22:44:59.897Z,20.50
2022-12-25T22:47:27.067Z,19.98
2022-12-25T22:49:54.297Z,21.25
2022-12-25T22:52:21.449Z,26.65
2022-12-25T22:54:48.965Z,28.63
2022-12-25T22:57:16.077Z,29.52
2022-12-25T22:59:43.316Z,35.15
2022-12-25T23:02:10.593Z,33.60
2022-12-25T23:04:37.825Z,39.38
2022-12-25T23:07:05.012Z,37.35
2022-12-25T23:09:32.171Z,38.40
2022-12-25T23:11:59.773Z,35.42
2022-12-25T23:14:39.758Z,35.83
2022-12-25T23:17:28.207Z,33.53
2022-12-25T23:20:14.364Z,32.63
2022-12-25T23:23:00.185Z,31.77
2022-12-25T23:25:46.645Z,30.88
2022-12-25T23:28:13.826Z,28.98
2022-12-25T23:30:41.026Z,30.30
2022-12-25T23:33:08.285Z,29.48
2022-12-25T23:35:35.681Z,28.33
2022-12-25T23:38:02.860Z,27.95
2022-12-25T23:40:30.316Z,28.27
2022-12-25T23:42:57.525Z,26.38
2022-12-25T23:45:24.648Z,27.23
2022-12-25T23:47:51.825Z,26.27
2022-12-25T23:50:18.979Z,25.63
2022-12-25T23:52:46.136Z,24.73
2022-12-25T23:55:13.265Z,25.70
2022-12-25T23:57:40.418Z,24.70
